createdAt,value
2022-07-29T00:00:47.238Z,98421.41
2022-07-29T16:58:34.423Z,68350.22
2022-07-29T17:01:07.965Z,68350.22
2022-07-29T17:04:01.770Z,68350.22
2022-07-29T17:06:43.591Z,68350.22
2022-07-29T17:09:26.165Z,68350.22
2022-07-29T17:12:09.752Z,68350.22
2022-07-29T17:14:41.278Z,68350.22
2022-07-29T17:17:13.682Z,68350.22
2022-07-29T17:19:54.548Z,68350.22
2022-07-29T17:22:23.157Z,68350.22
2022-07-29T17:24:56.171Z,68350.22
2022-07-29T17:27:23.697Z,68350.22
2022-07-29T17:29:51.542Z,68350.22
2022-07-29T17:32:20.523Z,68350.22
2022-07-29T17:34:48.995Z,68350.22
2022-07-29T17:37:17.318Z,68350.22
2022-07-29T17:39:45.388Z,68350.22
2022-07-29T17:42:37.416Z,68350.22
2022-07-29T17:45:05.483Z,68350.22
2022-07-29T17:47:33.588Z,68350.22
2022-07-29T17:50:04.883Z,68350.22
2022-07-29T17:52:32.863Z,68350.22
2022-07-29T17:55:01.355Z,68350.22
2022-07-29T17:57:43.204Z,68350.22
2022-07-29T18:00:21.743Z,68350.22
2022-07-29T18:02:52.953Z,68350.22
2022-07-29T18:05:22.619Z,68350.22
2022-07-29T18:07:51.158Z,68350.22
2022-07-29T18:10:42.861Z,68350.22
2022-07-29T18:13:14.113Z,68350.22
2022-07-29T18:15:41.916Z,98465.56
2022-07-29T18:18:09.904Z,98467.47
2022-07-29T18:20:40.435Z,98476.53
2022-07-29T18:23:11.219Z,98475.88
2022-07-29T18:25:47.900Z,98477.22
2022-07-29T18:28:15.595Z,98474.06
2022-07-29T18:30:43.409Z,98473.34
2022-07-29T18:33:21.294Z,98471.09
2022-07-29T18:38:35.222Z,98474.22
2022-07-29T18:41:03.843Z,98478.47
2022-07-29T18:43:31.118Z,98480.47
2022-07-29T18:45:59.057Z,98481.19
2022-07-29T18:48:32.464Z,98484.81
2022-07-29T18:51:03.117Z,98500.34
2022-07-29T18:53:37.403Z,98495.66
2022-07-29T18:56:05.548Z,98500.16
2022-07-29T19:01:32.250Z,98509.31
2022-07-29T19:04:01.747Z,98514.50
2022-07-29T19:06:29.656Z,98517.03
2022-07-29T19:08:57.989Z,98515.53
2022-07-29T19:11:26.297Z,98520.25
2022-07-29T19:13:54.142Z,98528.03
2022-07-29T19:16:29.995Z,98525.78
2022-07-29T19:19:08.593Z,98532.06
2022-07-29T19:21:45.537Z,98527.47
2022-07-29T19:24:15.826Z,98538.56
2022-07-29T19:26:47.882Z,98542.63
2022-07-29T19:29:23.812Z,98553.72
2022-07-29T19:32:05.225Z,98550.84
2022-07-29T19:34:35.032Z,98554.47
2022-07-29T19:37:06.553Z,98563.47
2022-07-29T19:39:37.523Z,98560.88
2022-07-29T19:42:11.235Z,98573.53
2022-07-29T19:44:47.347Z,98572.06
2022-07-29T19:47:17.937Z,98582.47
2022-07-29T19:49:46.244Z,98575.50
2022-07-29T19:52:13.747Z,98582.47
2022-07-29T19:54:43.769Z,98591.69
2022-07-29T19:57:17.050Z,98595.88
2022-07-29T19:59:45.352Z,98595.78
2022-07-29T20:02:13.893Z,98601.38
2022-07-29T20:04:46.308Z,98606.78
2022-07-29T20:07:18.738Z,98612.84
2022-07-29T20:09:46.892Z,98618.97
2022-07-29T20:12:14.737Z,98622.34
2022-07-29T20:14:44.860Z,98625.66
2022-07-29T20:17:16.774Z,98633.41
2022-07-29T20:19:48.718Z,98627.00
2022-07-29T20:22:21.530Z,98625.94
2022-07-29T20:24:53.139Z,98627.16
2022-07-29T20:27:20.813Z,98627.81
2022-07-29T20:29:48.100Z,98629.69
2022-07-29T20:32:18.732Z,98632.53
2022-07-29T20:34:46.098Z,98629.88
2022-07-29T20:37:15.157Z,98634.00
2022-07-29T20:39:48.832Z,98627.63
2022-07-29T20:42:19.682Z,98633.13
2022-07-29T20:44:47.389Z,98633.97
2022-07-29T20:47:16.332Z,98628.19
2022-07-29T20:49:44.213Z,98628.47
2022-07-29T20:52:11.784Z,98615.06
2022-07-29T20:54:39.082Z,98606.44
2022-07-29T20:57:06.415Z,98611.22
2022-07-29T20:59:36.922Z,98610.34
2022-07-29T21:02:09.783Z,98613.66
2022-07-29T21:04:37.539Z,98608.56
2022-07-29T21:07:05.735Z,98602.59
2022-07-29T21:09:33.219Z,98597.94
2022-07-29T21:12:01.021Z,98596.56
2022-07-29T21:14:50.434Z,98603.56
2022-07-29T21:17:22.750Z,98594.34
2022-07-29T21:19:55.804Z,98586.91
2022-07-29T21:22:26.019Z,98577.72
2022-07-29T21:24:56.450Z,98583.97
2022-07-29T21:27:45.150Z,98585.34
2022-07-29T21:30:14.644Z,98580.84
2022-07-29T21:32:45.765Z,98575.44
2022-07-29T21:35:35.693Z,98581.03
2022-07-29T21:38:00.439Z,98578.59
2022-07-29T21:40:27.810Z,98571.44
2022-07-29T21:42:54.898Z,98576.16
2022-07-29T21:45:22.354Z,98568.97
2022-07-29T21:47:49.440Z,98574.88
2022-07-29T21:50:16.539Z,98582.34
2022-07-29T21:52:43.604Z,98583.59
2022-07-29T21:55:11.653Z,98591.13
2022-07-29T21:57:44.931Z,98593.72
2022-07-29T22:00:16.183Z,98584.47
2022-07-29T22:02:44.131Z,98582.34
2022-07-29T22:05:12.553Z,98571.28
2022-07-29T22:07:56.069Z,98570.97
2022-07-29T22:10:28.112Z,98570.78
2022-07-29T22:12:57.644Z,98571.44
2022-07-29T22:15:27.590Z,98579.25
2022-07-29T22:17:55.158Z,98578.38
2022-07-29T22:20:22.893Z,98582.25
2022-07-29T22:22:50.244Z,98559.97
2022-07-29T22:25:17.976Z,98559.69
2022-07-29T22:27:45.658Z,98551.75
2022-07-29T22:30:13.311Z,98564.34
2022-07-29T22:32:41.185Z,98564.47
2022-07-29T22:35:11.533Z,98560.25
2022-07-29T22:37:41.334Z,98556.13
2022-07-29T22:40:09.273Z,98559.25
2022-07-29T22:42:40.622Z,98569.31
2022-07-29T22:45:11.803Z,98570.09
2022-07-29T22:47:48.215Z,98560.56
2022-07-29T22:50:17.651Z,98560.75
2022-07-29T22:52:45.908Z,98553.75
2022-07-29T22:55:13.479Z,98547.66
2022-07-29T22:57:41.057Z,98550.53
2022-07-29T23:00:09.593Z,98550.72
2022-07-29T23:02:38.259Z,98550.38
2022-07-29T23:05:06.668Z,98548.38
2022-07-29T23:07:33.904Z,98545.09
2022-07-29T23:10:01.591Z,98547.44
2022-07-29T23:12:28.979Z,98540.28
2022-07-29T23:15:02.339Z,98540.28
2022-07-29T23:17:31.962Z,98548.94
2022-07-29T23:20:08.227Z,98544.72
2022-07-29T23:22:37.083Z,98543.06
2022-07-29T23:25:12.812Z,98542.63
2022-07-29T23:27:40.889Z,98536.47
2022-07-29T23:30:08.580Z,98534.94
2022-07-29T23:32:35.580Z,98541.31
2022-07-29T23:35:02.773Z,98546.81
2022-07-29T23:37:29.870Z,98535.28
2022-07-29T23:39:57.006Z,98547.78
2022-07-29T23:42:24.541Z,98548.00
2022-07-29T23:44:51.857Z,98540.06
2022-07-29T23:47:19.118Z,98543.66
2022-07-29T23:49:46.729Z,98549.19
2022-07-29T23:52:13.915Z,98547.03
2022-07-29T23:54:40.990Z,98546.22
2022-07-29T23:57:08.040Z,98550.16
2022-07-29T23:59:35.297Z,98544.25
